Time;durP1;ratioP1;P1;durP2;ratioP2;P2;SDS_P1;SDS_P2;PMS_P1;PMS_P2;Temp;Humidity;BMP_temperature;BMP_pressure;BME280_temperature;BME280_humidity;BME280_pressure;Samples;Min_cycle;Max_cycle;Signal;HPM_P1;HPM_P2
2021/01/06 00:02:20;;;;;;;28.65;8.40;;;1.70;96.80;;;;;;12565486;23;88493;-69
2021/01/06 00:07:22;;;;;;;27.57;8.27;;;1.70;96.90;;;;;;12562727;23;87041;-69
2021/01/06 00:12:24;;;;;;;26.43;7.87;;;1.70;96.90;;;;;;12565548;23;87956;-69
2021/01/06 00:17:26;;;;;;;24.10;7.80;;;1.70;96.90;;;;;;12566446;23;88592;-69
2021/01/06 00:22:28;;;;;;;30.17;9.27;;;1.70;96.90;;;;;;12565075;23;87246;-69
2021/01/06 00:27:30;;;;;;;27.70;8.27;;;1.70;96.90;;;;;;12565821;23;86798;-69
2021/01/06 00:32:31;;;;;;;27.30;7.87;;;1.70;96.90;;;;;;12540027;23;88740;-69
2021/01/06 00:37:34;;;;;;;24.17;7.40;;;1.70;97.00;;;;;;12537682;23;89454;-69
2021/01/06 00:42:37;;;;;;;22.27;7.07;;;1.70;97.10;;;;;;12566196;23;88445;-69
2021/01/06 00:47:40;;;;;;;28.30;7.87;;;1.70;97.10;;;;;;12565182;23;88426;-69
2021/01/06 00:52:43;;;;;;;20.33;7.17;;;1.70;97.20;;;;;;12564227;23;90301;-69
2021/01/06 00:57:47;;;;;;;22.30;7.33;;;1.70;97.20;;;;;;12538666;23;88737;-69
2021/01/06 01:02:53;;;;;;;19.73;7.23;;;1.70;97.30;;;;;;12538981;23;88069;-71
2021/01/06 01:07:59;;;;;;;28.80;8.37;;;1.70;97.40;;;;;;12565168;23;88577;-70
2021/01/06 01:13:02;;;;;;;27.53;8.43;;;1.60;97.40;;;;;;12563281;23;88029;-69
2021/01/06 01:18:06;;;;;;;31.83;8.77;;;1.70;97.40;;;;;;12564985;23;88266;-70
2021/01/06 01:23:08;;;;;;;31.00;8.20;;;1.60;97.50;;;;;;12564956;23;87350;-69
2021/01/06 01:28:11;;;;;;;26.00;8.77;;;1.60;97.50;;;;;;12565157;23;87555;-70
2021/01/06 01:33:13;;;;;;;24.60;8.40;;;1.60;97.90;;;;;;12566111;23;87611;-70
2021/01/06 01:38:18;;;;;;;28.20;8.67;;;1.60;97.60;;;;;;12564392;23;89037;-70
2021/01/06 01:43:21;;;;;;;31.87;10.17;;;1.60;97.60;;;;;;12572957;23;87492;-70
2021/01/06 01:48:29;;;;;;;25.40;8.17;;;1.60;97.60;;;;;;12543834;23;90445;-69
2021/01/06 01:53:36;;;;;;;27.47;8.90;;;1.60;97.60;;;;;;12570340;23;86933;-70
2021/01/06 01:58:41;;;;;;;31.20;8.43;;;1.60;97.60;;;;;;12570936;23;87812;-68
2021/01/06 02:03:51;;;;;;;32.13;7.13;;;1.60;97.60;;;;;;12570085;23;87516;-69
2021/01/06 02:09:02;;;;;;;31.00;8.57;;;1.60;97.70;;;;;;12569424;23;89039;-69
2021/01/06 02:14:08;;;;;;;24.80;7.83;;;1.50;97.70;;;;;;12571446;23;87124;-68
2021/01/06 02:19:11;;;;;;;31.63;8.60;;;1.60;97.80;;;;;;12544262;23;87967;-69
2021/01/06 02:24:17;;;;;;;28.03;8.80;;;1.60;97.80;;;;;;12570765;23;87902;-69
2021/01/06 02:29:18;;;;;;;28.87;8.60;;;1.50;97.80;;;;;;12569062;23;90305;-69
2021/01/06 02:34:22;;;;;;;28.37;8.83;;;1.60;97.70;;;;;;12570666;23;87639;-69
2021/01/06 02:39:27;;;;;;;27.07;8.50;;;1.50;97.80;;;;;;12570888;23;88245;-69
2021/01/06 02:44:29;;;;;;;25.93;9.27;;;1.50;97.80;;;;;;12544805;23;89497;-69
2021/01/06 02:49:31;;;;;;;29.70;8.93;;;1.50;97.80;;;;;;12570340;23;88027;-69
2021/01/06 02:54:37;;;;;;;25.87;8.77;;;1.60;97.90;;;;;;12567622;23;88170;-69
2021/01/06 02:59:42;;;;;;;24.67;8.67;;;1.50;97.90;;;;;;12566889;23;87595;-68
2021/01/06 03:04:48;;;;;;;27.83;8.67;;;1.60;97.90;;;;;;12559025;23;88233;-69
2021/01/06 03:09:52;;;;;;;33.40;9.00;;;1.50;97.90;;;;;;12564111;23;87242;-69
2021/01/06 03:14:54;;;;;;;33.40;8.93;;;1.50;98.00;;;;;;12564777;23;88102;-69
2021/01/06 03:20:01;;;;;;;31.97;8.83;;;1.50;98.10;;;;;;12564892;23;89036;-69
2021/01/06 03:25:07;;;;;;;31.57;8.93;;;1.50;98.10;;;;;;12567637;23;87744;-69
2021/01/06 03:30:12;;;;;;;29.57;9.83;;;1.50;98.10;;;;;;12565136;23;87904;-69
2021/01/06 03:35:23;;;;;;;32.50;9.60;;;1.50;98.10;;;;;;12565607;23;88936;-69
2021/01/06 03:40:32;;;;;;;30.90;9.43;;;1.50;98.10;;;;;;12565356;23;87537;-69
2021/01/06 03:45:35;;;;;;;23.20;8.33;;;1.50;98.10;;;;;;12567631;23;88679;-70
2021/01/06 03:50:41;;;;;;;31.40;8.63;;;1.50;98.10;;;;;;12568051;23;87717;-70
2021/01/06 03:55:52;;;;;;;28.43;9.70;;;1.50;98.20;;;;;;12568332;23;88219;-69
2021/01/06 04:00:59;;;;;;;27.70;9.30;;;1.50;98.20;;;;;;12564029;23;86760;-69
2021/01/06 04:06:03;;;;;;;19.20;7.73;;;1.60;98.20;;;;;;12565220;23;86772;-70
2021/01/06 04:11:08;;;;;;;27.10;8.83;;;1.50;98.20;;;;;;12561501;23;90121;-70
2021/01/06 04:16:13;;;;;;;30.83;9.13;;;1.50;98.30;;;;;;12561900;23;88008;-69
2021/01/06 04:21:15;;;;;;;26.53;9.23;;;1.50;98.20;;;;;;12564270;23;87609;-70
2021/01/06 04:26:18;;;;;;;30.63;10.10;;;1.50;98.30;;;;;;12565778;23;87949;-70
2021/01/06 04:31:21;;;;;;;31.80;9.17;;;1.50;98.20;;;;;;12560971;23;88495;-69
2021/01/06 04:36:26;;;;;;;29.87;9.27;;;1.50;98.30;;;;;;12562384;23;88627;-69
2021/01/06 04:41:47;;;;;;;26.77;9.57;;;1.50;98.20;;;;;;12562568;23;87744;-70
2021/01/06 04:47:07;;;;;;;29.17;8.87;;;1.50;98.30;;;;;;12565005;23;86973;-69
2021/01/06 04:52:32;;;;;;;26.10;9.23;;;1.40;98.30;;;;;;12564380;23;88375;-69
2021/01/06 04:57:47;;;;;;;30.97;9.27;;;1.50;98.30;;;;;;12567136;23;87656;-70
2021/01/06 05:03:21;;;;;;;28.17;9.63;;;1.40;98.30;;;;;;12551760;23;88536;-70
2021/01/06 05:08:31;;;;;;;24.53;7.93;;;1.50;98.40;;;;;;12542837;23;87195;-70
2021/01/06 05:13:40;;;;;;;29.90;9.47;;;1.50;98.40;;;;;;12541977;23;88679;-70
2021/01/06 05:18:43;;;;;;;34.20;10.27;;;1.50;98.50;;;;;;12541356;23;87529;-70
2021/01/06 05:23:48;;;;;;;30.40;9.47;;;1.50;98.50;;;;;;12538163;23;87538;-71
2021/01/06 05:28:50;;;;;;;25.80;7.67;;;1.50;98.60;;;;;;12542209;23;88650;-70
2021/01/06 05:33:54;;;;;;;28.10;7.43;;;1.50;98.60;;;;;;12547066;23;87362;-71
2021/01/06 05:38:56;;;;;;;33.73;9.90;;;1.40;98.70;;;;;;12566086;23;87371;-70
2021/01/06 05:43:59;;;;;;;40.90;10.00;;;1.30;98.90;;;;;;12564921;23;87661;-70
2021/01/06 05:49:06;;;;;;;33.47;10.33;;;1.20;99.10;;;;;;12563616;23;87552;-71
2021/01/06 05:54:18;;;;;;;26.90;9.27;;;1.10;99.40;;;;;;12561459;23;88211;-70
2021/01/06 05:59:39;;;;;;;33.10;9.70;;;1.00;99.70;;;;;;12565767;23;87536;-71
2021/01/06 06:04:47;;;;;;;27.80;7.97;;;0.90;99.90;;;;;;12565675;23;87947;-70
2021/01/06 06:10:08;;;;;;;29.20;10.00;;;0.80;99.90;;;;;;12564582;23;87910;-70
2021/01/06 06:15:22;;;;;;;28.83;9.67;;;0.70;99.90;;;;;;12319003;23;88014;-71
2021/01/06 06:20:52;;;;;;;38.67;10.60;;;0.60;99.90;;;;;;12317274;23;88048;-70
2021/01/06 06:26:18;;;;;;;28.63;9.03;;;0.50;99.90;;;;;;12320395;23;87582;-70
2021/01/06 06:31:30;;;;;;;26.13;7.57;;;0.60;99.90;;;;;;12324559;23;86289;-71
2021/01/06 06:36:35;;;;;;;32.93;10.10;;;0.60;99.90;;;;;;12323469;23;87500;-70
2021/01/06 06:41:38;;;;;;;28.30;9.07;;;0.70;99.90;;;;;;12322891;23;88160;-71
2021/01/06 06:46:54;;;;;;;38.50;11.33;;;0.70;99.90;;;;;;12322223;23;88701;-71
2021/01/06 06:52:04;;;;;;;38.93;11.23;;;0.70;99.90;;;;;;12483380;23;88779;-71
2021/01/06 06:57:17;;;;;;;39.03;11.43;;;0.60;99.90;;;;;;12564795;23;89935;-71
2021/01/06 07:02:19;;;;;;;38.87;11.10;;;0.50;99.90;;;;;;12563704;23;88621;-73
2021/01/06 07:07:37;;;;;;;41.33;11.77;;;0.50;99.90;;;;;;12565761;23;87000;-71
2021/01/06 07:12:40;;;;;;;41.70;12.17;;;0.40;99.90;;;;;;12566549;23;87654;-71
2021/01/06 07:17:43;;;;;;;39.87;12.17;;;0.40;99.90;;;;;;12564860;23;87635;-70
2021/01/06 07:22:48;;;;;;;46.63;13.43;;;0.40;99.90;;;;;;12564337;23;88009;-71
2021/01/06 07:27:53;;;;;;;42.40;12.57;;;0.40;99.90;;;;;;12564423;23;87697;-71
2021/01/06 07:32:58;;;;;;;32.17;10.27;;;0.40;99.90;;;;;;12564422;23;88421;-71
2021/01/06 07:38:02;;;;;;;36.33;8.97;;;0.50;99.90;;;;;;12562028;23;88395;-70
2021/01/06 07:43:21;;;;;;;47.53;12.33;;;0.60;99.90;;;;;;12566449;23;87828;-71
2021/01/06 07:48:39;;;;;;;42.07;10.93;;;0.70;99.90;;;;;;12562662;23;87518;-69
2021/01/06 07:53:44;;;;;;;44.43;12.53;;;0.70;99.90;;;;;;12564002;23;89132;-70
2021/01/06 07:58:54;;;;;;;44.27;12.33;;;0.80;99.90;;;;;;12565043;23;87692;-70
2021/01/06 08:04:01;;;;;;;43.43;11.97;;;0.70;99.90;;;;;;12565433;23;87827;-70
2021/01/06 08:09:03;;;;;;;40.40;11.87;;;0.80;99.90;;;;;;12562986;23;87697;-69
2021/01/06 08:14:05;;;;;;;44.43;12.80;;;0.80;99.90;;;;;;12565486;23;87088;-70
2021/01/06 08:19:16;;;;;;;42.70;13.77;;;0.80;99.90;;;;;;12563815;23;88780;-70
2021/01/06 08:24:28;;;;;;;45.43;12.87;;;0.80;99.90;;;;;;12564118;23;87751;-70
2021/01/06 08:29:31;;;;;;;42.50;12.47;;;0.80;99.90;;;;;;12562318;23;87976;-70
2021/01/06 08:34:35;;;;;;;43.57;13.30;;;0.90;99.90;;;;;;12564477;23;87515;-70
2021/01/06 08:39:39;;;;;;;47.83;12.93;;;0.90;99.90;;;;;;12565111;23;86964;-70
2021/01/06 08:44:45;;;;;;;42.60;12.43;;;1.00;99.90;;;;;;12566066;23;87554;-70
2021/01/06 08:49:48;;;;;;;46.60;13.60;;;1.00;99.90;;;;;;12561894;23;87862;-70
2021/01/06 08:55:03;;;;;;;48.63;13.10;;;1.10;99.90;;;;;;12564506;23;88594;-70
2021/01/06 09:00:15;;;;;;;51.60;14.10;;;1.20;99.90;;;;;;12562124;23;87924;-70
2021/01/06 09:05:48;;;;;;;44.37;12.70;;;1.30;99.90;;;;;;12539367;23;90344;-70
2021/01/06 09:11:01;;;;;;;46.43;12.60;;;1.30;99.90;;;;;;12562249;23;87420;-71
2021/01/06 09:16:10;;;;;;;45.33;11.33;;;1.30;99.90;;;;;;12562449;23;87631;-71
2021/01/06 09:21:21;;;;;;;41.00;12.30;;;1.40;99.90;;;;;;12560702;23;90129;-71
2021/01/06 09:26:25;;;;;;;36.27;12.03;;;1.40;99.90;;;;;;12561835;23;86777;-70
2021/01/06 09:31:28;;;;;;;39.33;11.70;;;1.50;99.90;;;;;;12564701;23;87565;-69
2021/01/06 09:36:31;;;;;;;42.77;11.97;;;1.60;99.90;;;;;;12563911;23;87602;-70
2021/01/06 09:41:34;;;;;;;52.17;14.30;;;1.80;99.90;;;;;;12565068;23;89009;-70
2021/01/06 09:46:45;;;;;;;53.10;13.97;;;1.90;99.90;;;;;;12565525;23;88107;-70
2021/01/06 09:51:53;;;;;;;49.40;13.83;;;2.10;99.90;;;;;;12562666;23;87632;-69
2021/01/06 09:56:55;;;;;;;46.47;13.27;;;2.20;99.90;;;;;;12536920;23;88052;-70
2021/01/06 10:02:02;;;;;;;43.30;11.97;;;2.30;99.90;;;;;;12564902;23;88937;-70
2021/01/06 10:07:25;;;;;;;43.03;11.53;;;2.30;99.90;;;;;;12564342;23;88099;-70
2021/01/06 10:12:40;;;;;;;38.67;12.33;;;2.30;99.90;;;;;;12321035;23;89426;-70
2021/01/06 10:17:51;;;;;;;45.13;13.43;;;2.30;99.90;;;;;;12318592;23;87841;-70
2021/01/06 10:22:56;;;;;;;44.97;12.07;;;2.30;99.90;;;;;;12321603;23;88950;-69
2021/01/06 10:28:04;;;;;;;39.37;11.53;;;2.30;99.90;;;;;;12378630;23;89058;-70
2021/01/06 10:33:11;;;;;;;41.93;12.37;;;2.20;99.90;;;;;;12381394;23;87664;-70
2021/01/06 10:38:22;;;;;;;40.03;12.77;;;2.10;99.90;;;;;;12378763;23;87661;-70
2021/01/06 10:43:43;;;;;;;42.90;12.63;;;2.10;99.90;;;;;;12379366;23;87536;-70
2021/01/06 10:48:47;;;;;;;38.53;12.37;;;2.10;99.90;;;;;;12527704;23;86861;-69
2021/01/06 10:53:50;;;;;;;48.30;13.23;;;2.10;99.90;;;;;;12621371;23;87730;-70
2021/01/06 10:58:57;;;;;;;41.73;12.13;;;2.20;99.90;;;;;;12621857;23;87640;-70
2021/01/06 11:04:31;;;;;;;39.73;11.20;;;2.20;99.90;;;;;;12620642;23;88210;-69
2021/01/06 11:10:10;;;;;;;45.47;12.87;;;2.40;99.90;;;;;;12619595;23;87549;-70
2021/01/06 11:15:32;;;;;;;43.57;12.63;;;2.60;99.90;;;;;;12621223;23;88049;-69
2021/01/06 11:20:36;;;;;;;43.00;12.47;;;2.60;99.90;;;;;;12618728;23;87178;-69
2021/01/06 11:25:49;;;;;;;46.10;13.77;;;2.60;99.90;;;;;;12563633;23;87953;-69
2021/01/06 11:31:24;;;;;;;42.07;11.90;;;2.50;99.90;;;;;;12559703;23;87688;-70
2021/01/06 11:36:43;;;;;;;47.53;13.90;;;2.50;99.90;;;;;;12562452;23;88356;-70
2021/01/06 11:42:06;;;;;;;38.80;11.40;;;2.50;99.90;;;;;;12565670;23;87147;-69
2021/01/06 11:47:29;;;;;;;43.03;11.87;;;2.50;99.90;;;;;;12563107;23;89005;-70
2021/01/06 11:52:38;;;;;;;40.03;12.00;;;2.40;99.90;;;;;;12562501;23;86952;-69
2021/01/06 11:57:49;;;;;;;44.00;13.00;;;2.40;99.90;;;;;;12559442;23;88619;-69
2021/01/06 12:03:18;;;;;;;44.83;12.63;;;2.40;99.90;;;;;;12563601;23;87756;-70
2021/01/06 12:08:24;;;;;;;46.03;12.43;;;2.40;99.90;;;;;;12566705;23;87644;-70
2021/01/06 12:13:37;;;;;;;44.50;12.87;;;2.40;99.90;;;;;;12566543;23;88019;-71
2021/01/06 12:19:17;;;;;;;39.93;13.60;;;2.40;99.90;;;;;;12565349;23;87043;-70
2021/01/06 12:24:22;;;;;;;46.20;13.47;;;2.40;99.90;;;;;;12563868;23;87912;-70
2021/01/06 12:29:27;;;;;;;42.77;12.70;;;2.50;99.90;;;;;;12566203;23;87564;-70
2021/01/06 12:34:38;;;;;;;39.73;12.23;;;2.50;99.90;;;;;;12566487;23;86715;-69
2021/01/06 12:39:42;;;;;;;46.57;12.87;;;2.50;99.90;;;;;;12564153;23;87977;-70
2021/01/06 12:44:49;;;;;;;41.80;13.00;;;2.60;99.90;;;;;;12563877;23;87201;-70
2021/01/06 12:50:12;;;;;;;45.03;12.00;;;2.60;99.90;;;;;;12561387;23;88544;-70
2021/01/06 12:55:22;;;;;;;41.73;11.87;;;2.60;99.90;;;;;;12565464;23;88733;-70
2021/01/06 13:00:39;;;;;;;40.97;12.20;;;2.70;99.90;;;;;;12565440;23;87666;-70
2021/01/06 13:05:51;;;;;;;45.50;13.03;;;2.70;99.90;;;;;;12565804;23;87541;-70
2021/01/06 13:10:53;;;;;;;48.37;13.13;;;2.60;99.90;;;;;;12565159;23;88011;-70
2021/01/06 13:15:59;;;;;;;42.70;12.00;;;2.60;99.90;;;;;;12565835;23;88069;-69
2021/01/06 13:21:05;;;;;;;39.30;11.27;;;2.50;99.90;;;;;;12565295;23;87734;-70
2021/01/06 13:26:32;;;;;;;36.30;10.87;;;2.40;99.90;;;;;;12564894;23;87320;-70
2021/01/06 13:31:42;;;;;;;39.43;10.97;;;2.30;99.90;;;;;;12565522;23;87143;-69
2021/01/06 13:36:49;;;;;;;32.60;9.90;;;2.20;99.90;;;;;;12537206;23;89535;-70
2021/01/06 13:41:51;;;;;;;34.23;10.27;;;2.20;99.90;;;;;;12565623;23;88624;-70
2021/01/06 13:46:57;;;;;;;29.67;9.47;;;2.10;99.90;;;;;;12535950;23;90640;-70
2021/01/06 13:52:09;;;;;;;31.70;8.73;;;2.00;99.90;;;;;;12564101;23;87121;-70
2021/01/06 13:57:18;;;;;;;33.67;10.20;;;1.90;99.90;;;;;;12565185;23;86708;-70
2021/01/06 14:02:27;;;;;;;36.80;10.43;;;1.90;99.90;;;;;;12561817;23;87672;-70
2021/01/06 14:07:44;;;;;;;32.23;9.23;;;1.90;99.90;;;;;;12564034;23;87670;-69
2021/01/06 14:13:05;;;;;;;35.40;9.83;;;1.90;99.90;;;;;;12565759;23;88367;-69
2021/01/06 14:18:18;;;;;;;35.23;9.00;;;1.80;99.90;;;;;;12566835;23;87003;-70
2021/01/06 14:23:37;;;;;;;35.07;9.97;;;1.80;99.90;;;;;;12565839;23;87752;-70
2021/01/06 14:28:44;;;;;;;31.17;9.73;;;1.80;99.90;;;;;;12536485;23;88872;-70
2021/01/06 14:33:50;;;;;;;38.33;9.50;;;1.70;99.90;;;;;;12563372;23;91496;-70
2021/01/06 14:38:59;;;;;;;37.53;11.20;;;1.70;99.90;;;;;;12564994;23;87496;-69
2021/01/06 14:44:20;;;;;;;31.17;10.23;;;1.70;99.90;;;;;;12562156;23;87768;-69
2021/01/06 14:49:29;;;;;;;35.50;9.87;;;1.70;99.90;;;;;;12561309;23;87728;-69
2021/01/06 14:54:57;;;;;;;33.30;10.00;;;1.70;99.90;;;;;;12562851;23;87679;-69
2021/01/06 15:00:16;;;;;;;33.10;10.00;;;1.70;99.90;;;;;;12562114;23;87563;-70
2021/01/06 15:05:27;;;;;;;31.37;10.30;;;1.70;99.90;;;;;;12564210;23;87601;-71
2021/01/06 15:10:34;;;;;;;30.33;8.93;;;1.70;99.90;;;;;;12566064;23;86837;-71
2021/01/06 15:15:38;;;;;;;38.47;10.93;;;1.60;99.90;;;;;;12569202;23;87281;-71
2021/01/06 15:20:41;;;;;;;40.90;11.27;;;1.60;99.90;;;;;;12564059;23;88327;-70
2021/01/06 15:25:47;;;;;;;46.37;12.83;;;1.50;99.90;;;;;;12624272;23;88617;-70
2021/01/06 15:30:56;;;;;;;90.10;25.50;;;1.50;99.90;;;;;;12626480;23;88813;-69
2021/01/06 15:36:01;;;;;;;41.97;11.50;;;1.50;99.90;;;;;;12626250;23;88381;-69
2021/01/06 15:41:07;;;;;;;38.23;10.67;;;1.50;99.90;;;;;;12625068;23;87049;-69
2021/01/06 15:46:11;;;;;;;36.73;10.10;;;1.40;99.90;;;;;;12624502;23;88037;-69
2021/01/06 15:51:22;;;;;;;37.07;10.73;;;1.40;99.90;;;;;;12625199;23;87625;-68
2021/01/06 15:56:28;;;;;;;27.50;9.87;;;1.50;99.90;;;;;;12623482;23;89688;-68
2021/01/06 16:01:31;;;;;;;32.77;9.00;;;1.40;99.90;;;;;;12625788;23;87198;-68
2021/01/06 16:06:43;;;;;;;36.10;10.97;;;1.40;99.90;;;;;;12628722;23;88103;-68
2021/01/06 16:11:47;;;;;;;36.20;10.37;;;1.40;99.90;;;;;;12624619;23;87672;-68
2021/01/06 16:16:59;;;;;;;36.10;10.67;;;1.50;99.90;;;;;;12624290;23;88600;-68
2021/01/06 16:22:00;;;;;;;36.37;10.33;;;1.40;99.90;;;;;;12609159;23;87626;-68
2021/01/06 16:27:22;;;;;;;32.37;9.60;;;1.40;99.90;;;;;;12564112;23;86799;-69
2021/01/06 16:32:25;;;;;;;29.53;9.63;;;1.40;99.90;;;;;;12567206;23;87557;-68
2021/01/06 16:37:28;;;;;;;29.77;9.87;;;1.40;99.90;;;;;;12564215;23;87264;-68
2021/01/06 16:42:34;;;;;;;31.27;9.53;;;1.40;99.90;;;;;;12565311;23;87637;-68
2021/01/06 16:47:36;;;;;;;29.80;9.27;;;1.40;99.90;;;;;;12540463;23;89432;-68
2021/01/06 16:52:38;;;;;;;34.83;10.27;;;1.40;99.90;;;;;;12562478;23;88195;-68
2021/01/06 16:57:48;;;;;;;34.50;9.73;;;1.40;99.90;;;;;;12561036;23;86899;-69
2021/01/06 17:02:58;;;;;;;38.83;10.53;;;1.40;99.90;;;;;;12565424;23;87466;-68
2021/01/06 17:08:02;;;;;;;34.67;9.73;;;1.40;99.90;;;;;;12563199;23;88403;-69
2021/01/06 17:13:08;;;;;;;40.20;10.53;;;1.30;99.90;;;;;;12563497;23;87689;-69
2021/01/06 17:18:22;;;;;;;36.90;11.40;;;1.40;99.90;;;;;;12564280;23;87476;-69
2021/01/06 17:23:27;;;;;;;39.70;11.60;;;1.40;99.90;;;;;;12562930;23;87820;-68
2021/01/06 17:28:30;;;;;;;38.73;12.13;;;1.30;99.90;;;;;;12560243;23;87547;-69
2021/01/06 17:33:31;;;;;;;39.33;11.60;;;1.30;99.90;;;;;;12564871;23;86932;-69
2021/01/06 17:38:34;;;;;;;40.83;11.57;;;1.30;99.90;;;;;;12562065;23;87495;-69
2021/01/06 17:43:36;;;;;;;38.47;12.30;;;1.30;99.90;;;;;;12558832;23;86870;-68
2021/01/06 17:48:38;;;;;;;47.70;12.53;;;1.30;99.90;;;;;;12559271;23;87605;-67
2021/01/06 17:53:41;;;;;;;44.97;13.00;;;1.30;99.90;;;;;;12557807;23;87565;-68
2021/01/06 17:58:43;;;;;;;36.73;12.10;;;1.30;99.90;;;;;;12551675;23;89435;-66
2021/01/06 18:03:53;;;;;;;43.50;13.07;;;1.30;99.90;;;;;;12564511;23;87268;-67
2021/01/06 18:08:59;;;;;;;33.30;11.60;;;1.30;99.90;;;;;;12556276;23;88219;-69
2021/01/06 18:14:03;;;;;;;46.57;12.33;;;1.30;99.90;;;;;;12530920;23;87677;-67
2021/01/06 18:19:18;;;;;;;36.00;13.07;;;1.30;99.90;;;;;;12563648;23;87457;-67
2021/01/06 18:24:24;;;;;;;43.73;13.30;;;1.30;99.90;;;;;;12557511;23;87145;-69
2021/01/06 18:29:34;;;;;;;39.77;12.57;;;1.30;99.90;;;;;;12563170;23;87663;-67
2021/01/06 18:34:36;;;;;;;39.07;12.57;;;1.30;99.90;;;;;;12564854;23;86454;-67
2021/01/06 18:39:38;;;;;;;38.60;12.37;;;1.30;99.90;;;;;;12529476;23;90105;-68
2021/01/06 18:44:41;;;;;;;45.63;13.13;;;1.30;99.90;;;;;;12559264;23;87811;-68
2021/01/06 18:49:43;;;;;;;45.33;12.60;;;1.30;99.90;;;;;;12532217;23;90222;-68
2021/01/06 18:54:55;;;;;;;43.03;12.40;;;1.30;99.90;;;;;;12535472;23;90532;-68
2021/01/06 18:59:56;;;;;;;45.47;12.17;;;1.40;99.90;;;;;;12553657;23;87430;-68
2021/01/06 19:05:04;;;;;;;49.23;14.07;;;1.40;99.90;;;;;;12557948;23;87798;-67
2021/01/06 19:10:10;;;;;;;45.00;14.33;;;1.40;99.90;;;;;;12560872;23;87629;-68
2021/01/06 19:15:16;;;;;;;43.50;13.50;;;1.40;99.90;;;;;;12523618;23;89598;-68
2021/01/06 19:20:27;;;;;;;49.27;14.67;;;1.40;99.90;;;;;;12558913;23;87559;-67
2021/01/06 19:25:37;;;;;;;44.00;14.73;;;1.40;99.90;;;;;;12555910;23;89578;-67
2021/01/06 19:30:45;;;;;;;49.37;14.27;;;1.40;99.90;;;;;;12557819;23;90982;-67
2021/01/06 19:35:47;;;;;;;47.63;13.70;;;1.50;99.90;;;;;;12558299;23;87464;-67
2021/01/06 19:40:59;;;;;;;51.30;14.57;;;1.50;99.90;;;;;;12558930;23;88169;-68
2021/01/06 19:46:01;;;;;;;49.50;13.70;;;1.50;99.90;;;;;;12562454;23;87577;-67
2021/01/06 19:51:04;;;;;;;51.80;15.17;;;1.50;99.90;;;;;;12559565;23;88718;-68
2021/01/06 19:56:11;;;;;;;44.07;14.07;;;1.50;99.90;;;;;;12554135;23;87775;-68
2021/01/06 20:01:20;;;;;;;44.43;13.93;;;1.60;99.90;;;;;;12554466;23;87904;-69
2021/01/06 20:06:21;;;;;;;45.30;13.93;;;1.60;99.90;;;;;;12556079;23;87825;-68
2021/01/06 20:11:26;;;;;;;44.53;13.77;;;1.60;99.90;;;;;;12556677;23;90862;-67
2021/01/06 20:16:29;;;;;;;51.10;14.70;;;1.60;99.90;;;;;;12563828;23;86434;-69
2021/01/06 20:21:32;;;;;;;46.77;14.53;;;1.60;99.90;;;;;;12562515;23;87513;-68
2021/01/06 20:26:37;;;;;;;38.63;13.00;;;1.50;99.90;;;;;;12560789;23;87616;-68
2021/01/06 20:31:39;;;;;;;41.83;12.83;;;1.50;99.90;;;;;;12557962;23;88595;-68
2021/01/06 20:36:41;;;;;;;48.67;13.87;;;1.50;99.90;;;;;;12549559;23;87685;-68
2021/01/06 20:41:43;;;;;;;41.37;13.00;;;1.50;99.90;;;;;;12550902;23;87597;-68
2021/01/06 20:46:45;;;;;;;37.93;12.63;;;1.40;99.90;;;;;;12561842;23;87682;-70
2021/01/06 20:51:47;;;;;;;45.17;14.07;;;1.40;99.90;;;;;;12553082;23;87568;-70
2021/01/06 20:56:52;;;;;;;41.20;12.40;;;1.50;99.90;;;;;;12548472;23;87197;-71
2021/01/06 21:01:57;;;;;;;37.70;12.40;;;1.50;99.90;;;;;;12551143;23;88951;-71
2021/01/06 21:06:59;;;;;;;44.30;13.20;;;1.50;99.90;;;;;;12528128;23;88635;-66
2021/01/06 21:12:01;;;;;;;43.83;13.77;;;1.50;99.90;;;;;;12564130;23;88102;-66
2021/01/06 21:17:05;;;;;;;42.57;12.50;;;1.50;99.90;;;;;;12562248;23;87487;-68
2021/01/06 21:22:06;;;;;;;46.10;13.20;;;1.50;99.90;;;;;;12560454;23;88391;-67
2021/01/06 21:27:09;;;;;;;46.83;13.10;;;1.50;99.90;;;;;;12564573;23;87582;-67
2021/01/06 21:32:13;;;;;;;40.57;12.70;;;1.50;99.90;;;;;;12564296;23;86919;-68
2021/01/06 21:37:16;;;;;;;44.47;12.63;;;1.50;99.90;;;;;;12561120;23;87362;-68
2021/01/06 21:42:18;;;;;;;40.97;12.50;;;1.60;99.90;;;;;;12562215;23;87618;-69
2021/01/06 21:47:22;;;;;;;42.13;11.97;;;1.60;99.90;;;;;;12560713;23;87649;-68
2021/01/06 21:52:24;;;;;;;41.63;12.27;;;1.60;99.90;;;;;;12559958;23;87647;-68
2021/01/06 21:57:26;;;;;;;43.80;12.50;;;1.60;99.90;;;;;;12565585;23;86775;-68
2021/01/06 22:02:28;;;;;;;52.43;14.17;;;1.60;99.90;;;;;;12564563;23;87547;-69
2021/01/06 22:07:30;;;;;;;45.23;12.80;;;1.50;99.90;;;;;;12566307;23;87562;-69
2021/01/06 22:12:32;;;;;;;36.60;12.23;;;1.50;99.90;;;;;;12565154;23;88717;-68
2021/01/06 22:17:34;;;;;;;43.70;12.83;;;1.50;99.90;;;;;;12565813;23;90164;-68
2021/01/06 22:22:36;;;;;;;43.93;13.93;;;1.50;99.90;;;;;;12565281;23;87695;-68
2021/01/06 22:27:39;;;;;;;45.17;13.40;;;1.60;99.90;;;;;;12564799;23;87283;-69
2021/01/06 22:32:40;;;;;;;42.63;13.07;;;1.60;99.90;;;;;;12564018;23;87887;-68
2021/01/06 22:37:42;;;;;;;38.00;12.57;;;1.60;99.90;;;;;;12563721;23;87719;-67
2021/01/06 22:42:44;;;;;;;42.57;12.93;;;1.60;99.90;;;;;;12563814;23;87051;-67
2021/01/06 22:47:47;;;;;;;40.77;13.07;;;1.60;99.90;;;;;;12563517;23;87302;-67
2021/01/06 22:52:49;;;;;;;49.00;13.97;;;1.60;99.90;;;;;;12562897;23;88491;-68
2021/01/06 22:57:51;;;;;;;40.70;12.40;;;1.50;99.90;;;;;;12552951;23;87846;-66
2021/01/06 23:02:53;;;;;;;44.50;13.33;;;1.40;99.90;;;;;;12558255;23;88517;-67
2021/01/06 23:07:55;;;;;;;43.17;12.60;;;1.50;99.90;;;;;;12535931;23;89491;-68
2021/01/06 23:12:57;;;;;;;39.73;12.20;;;1.50;99.90;;;;;;12559302;23;88533;-69
2021/01/06 23:17:59;;;;;;;43.90;13.80;;;1.50;99.90;;;;;;12536759;23;87854;-68
2021/01/06 23:23:00;;;;;;;39.83;13.27;;;1.50;99.90;;;;;;12561977;23;87295;-68
2021/01/06 23:28:04;;;;;;;48.10;13.53;;;1.60;99.90;;;;;;12560575;23;87505;-68
2021/01/06 23:33:06;;;;;;;48.53;14.73;;;1.70;99.90;;;;;;12561437;23;87604;-67
2021/01/06 23:38:08;;;;;;;43.77;13.03;;;1.70;99.90;;;;;;12563323;23;86763;-69
2021/01/06 23:56:17;;;;;;;42.33;12.70;;;1.50;99.90;;;;;;12512386;23;89127;-69
